NCAR-RAP Real-Time Weather Data

Output produced by METARs form (26 May 2022  08:33 UTC)
found at http://weather.rap.ucar.edu/surface/
 
KLOU 260753Z AUTO 16008KT 10SM FEW070 OVC100 23/18 A2993 RMK AO2 SLP128 T02280178 $
KLOU 260653Z AUTO 17011G16KT 10SM FEW075 BKN090 BKN110 23/18 A2994 RMK AO2 SLP130 T02280178 $
KLOU 260553Z AUTO 16007KT 10SM FEW031 SCT065 OVC110 22/17 A2994 RMK AO2 SLP134 T02220172 10250 20222 50007 $
KLOU 260453Z AUTO 18009KT 10SM BKN110 23/17 A2995 RMK AO2 SLP135 T02280172 403000183 $
KLOU 260353Z AUTO 17012G22KT 10SM CLR 23/17 A2994 RMK AO2 SLP134 T02330172 $
KLOU 260253Z AUTO 16017G26KT 10SM FEW042 24/18 A2992 RMK AO2 PK WND 16027/0237 SLP127 T02390178 50001 $
KLOU 260153Z AUTO 17010G21KT 10SM FEW100 24/18 A2992 RMK AO2 SLP127 T02390178 $
KLOU 260053Z 17010G19KT 10SM OVC095 24/18 A2992 RMK AO2 SLP128 T02440183 $
KLOU 252353Z 18011KT 10SM CLR 25/19 A2992 RMK AO2 SLP127 6//// T02500194 10300 20222 51001 $
KLOU 252253Z 17007KT 5SM HZ FEW070 SCT110 25/21 A2991 RMK AO2 LTG DSNT N RAE07 TSE00 SLP124 P0001 T02500211
KLOU 252206Z 17009G24KT 5SM -RA BR SCT030 BKN080 BKN095 23/21 A2992 RMK AO2 TSE00 P0001 T02280206
KLOU 252158Z 18015G24KT 5SM TSRA BR FEW025 BKN039 OVC100 23/21 A2993 RMK AO2 P0001 T02280206
KLOU 252153Z 20013G41KT 3/4SM TSRA BR BKN030 BKN048 OVC090 22/21 A2993 RMK AO2 PK WND 18041/2145 RAB09 TSB14E29B45 SLP131 P0040 T02220211
KLOU 252146Z 18026G41KT 1SM +TSRA BR BKN027 BKN048 OVC100 23/21 A2994 RMK AO2 PK WND 18041/2145 RAB09 TSB14E29B45 PRESRR P0030 T02280206
KLOU 252142Z 21014G22KT 1 3/4SM RA BR FEW024 BKN042 OVC100 23/21 A2992 RMK AO2 PK WND 21026/2114 VIS 1V4 RAB09 TSB14E29 P0017 T02280206
KLOU 252129Z 20012G19KT 2 1/2SM VCTS -RA FEW038 BKN065 OVC095 24/21 A2991 RMK AO2 PK WND 21026/2114 LTG DSNT S RAB09 TSB14E29 P0010 T02390211
KLOU 252126Z 19008KT 1 3/4SM -TSRA FEW032 BKN060 OVC100 24/21 A2991 RMK AO2 PK WND 21026/2114 VIS 3/4V5 LTG DSNT S RAB09 TSB14 P0010 T02390211
KLOU 252117Z 18015G26KT 2 1/2SM +TSRA SCT050 SCT070 BKN080 25/21 A2992 RMK AO2 PK WND 21026/2114 VIS 1 1/2V5 LTG DSNT S RAB09 TSB14 P0003 T02500211
KLOU 252053Z 18012G20KT 10SM CLR 28/21 A2992 RMK AO2 RAE06 SLP126 P0000 60008 T02780211 58020
KLOU 251953Z AUTO 14010G22KT 3SM -RA FEW032 SCT050 BKN070 25/21 A2994 RMK AO2 PK WND 16031/1940 LTG DSNT E RAB40 SLP135 P0008 T02500211
KLOU 251853Z 16015G23KT 10SM FEW041 SCT049 30/20 A2995 RMK AO2 LTG DSNT E SLP136 T03000200
KLOU 251753Z 15010G19KT 10SM SCT038 BKN046 29/21 A2998 RMK AO2 SLP145 T02940206 10294 20206 58014
KLOU 251653Z 16010G18KT 10SM SCT033 BKN070 28/21 A2999 RMK AO2 SLP150 T02830206
KLOU 251553Z 17012G19KT 10SM SCT029 27/20 A3001 RMK AO2 SLP158 T02720200
KLOU 251453Z 17009G17KT 10SM CLR 26/19 A3002 RMK AO2 SLP160 T02560194 58007
KLOU 251353Z 14008KT 10SM SCT110 23/19 A3004 RMK AO2 SLP168 T02330189
KLOU 251253Z 15007KT 10SM SCT110 22/18 A3004 RMK AO2 SLP167 T02170183
KLOU 251153Z 14004KT 10SM CLR 20/18 A3004 RMK AO2 RAE1059 SLP167 P0000 60000 T02000183 10206 20183 52001
KLOU 251053Z 13006KT 10SM -RA SCT110 19/18 A3003 RMK AO2 RAB02 SLP165 P0000 T01940178
KLOU 250953Z AUTO 15007KT 10SM FEW035 BKN070 BKN085 19/17 A3004 RMK AO2 RAB02E12B38E47 SLP169 P0000 T01940172
KLOU 250853Z AUTO 14005KT 10SM FEW050 BKN065 OVC080 19/17 A3003 RMK AO2 RAB02E23 SLP167 P0000 60000 T01890167 55010
KLOU 250753Z AUTO 12007KT 10SM BKN060 OVC075 19/17 A3002 RMK AO2 SLP161 T01890167
KLOU 250653Z AUTO 11007KT 10SM SCT075 OVC100 18/16 A3003 RMK AO2 RAB0554E22 SLP165 P0000 T01830161
KLOU 250553Z AUTO 18008KT 10SM SCT060 OVC075 19/16 A3007 RMK AO2 PRESRR SLP177 60000 T01890156 10228 20183 58005
KLOU 250453Z AUTO 09009KT 10SM FEW080 SCT110 18/16 A3006 RMK AO2 RAB02E51 SLP176 P0000 T01830156 402330122
KLOU 250353Z AUTO 11012G18KT 10SM SCT043 BKN070 OVC090 19/15 A3009 RMK AO2 SLP187 T01890150
KLOU 250253Z AUTO 10008KT 10SM CLR 19/16 A3008 RMK AO2 SLP183 T01940156 53008
KLOU 250153Z 09008KT 10SM CLR 20/16 A3007 RMK AO2 SLP178 T02000156
KLOU 250053Z 10015G21KT 10SM CLR 22/16 A3005 RMK AO2 SLP174 T02170156
KLOU 242353Z 11011KT 10SM CLR 23/16 A3006 RMK AO2 SLP175 T02280161 10233 20217 55005
KLOU 242253Z 08008KT 10SM CLR 23/16 A3005 RMK AO2 SLP173 T02330161
KLOU 242153Z 09008KT 10SM CLR 23/16 A3005 RMK AO2 SLP175 T02280161
KLOU 242053Z 10009G15KT 10SM CLR 23/16 A3007 RMK AO2 SLP181 T02330161 58016
KLOU 242015Z 12007KT 10SM SCT029 23/16 A3008 RMK AO2 T02330161
KLOU 241953Z AUTO 11007KT 10SM BKN028 23/16 A3009 RMK AO2 SLP187 T02280156
KLOU 241944Z 08008KT 10SM BKN028 23/16 A3009 RMK AO2 T02330156
KLOU 241853Z VRB05KT 10SM FEW028 22/15 A3011 RMK AO2 SLP192 T02220150
KLOU 241815Z 10008KT 10SM SCT028 22/15 A3012 RMK AO2 T02220150
KLOU 241753Z 08008KT 10SM OVC027 22/14 A3012 RMK AO2 SLP197 T02170144 10217 20150 58009
KLOU 241653Z 05005KT 10SM OVC026 21/14 A3014 RMK AO2 SLP204 T02060139
KLOU 241553Z VRB04KT 10SM OVC024 19/13 A3016 RMK AO2 SLP209 T01940128
KLOU 241453Z 10008KT 10SM OVC022 18/12 A3015 RMK AO2 SLP207 T01830122 58003
KLOU 241353Z 09007KT 10SM BKN025 18/12 A3016 RMK AO2 SLP209 T01780117
KLOU 241348Z 07005KT 10SM BKN025 17/12 A3015 RMK AO2
KLOU 241253Z 05008KT 10SM SCT026 17/11 A3016 RMK AO2 SLP210 T01670111
KLOU 241207Z 02006KT 10SM SCT026 15/11 A3015 RMK AO2 T01500106
KLOU 241200Z 05006KT 10SM BKN026 15/11 A3015 RMK AO2 T01500106
KLOU 241153Z 04006KT 10SM SCT026 15/11 A3015 RMK AO2 SLP207 T01500106 10150 20122 51013
KLOU 241053Z 00000KT 10SM SCT024 12/10 A3013 RMK AO2 SLP203 T01220100
KLOU 240953Z AUTO 35003KT 10SM OVC026 13/09 A3013 RMK AO2 SLP201 T01280094
KLOU 240939Z AUTO 36004KT 10SM BKN025 13/09 A3013 RMK AO2 T01280094
KLOU 240853Z AUTO 03004KT 10SM CLR 12/09 A3011 RMK AO2 SLP194 T01220094 58007